Terminal Aerodrome Forecast
Issued by NWS Atlanta, GA

Home | Current Version | Previous Version | Text Only | Print | Product List | Glossary On
Versions: 1 2 3 4 5 6 7 8 9 10 11 12 13 14 15 16 17 18 19 20 21 22 23 24 25 26 27 28 29 30 31 32 33
000
FTUS42 KFFC 210528
TAFAHN
TAF
KAHN 210528Z 2106/2206 10006KT P6SM BKN250
     FM211500 11006KT P6SM BKN040
     FM212000 10006KT P6SM VCSH SCT015 BKN035
     FM212300 09006KT 5SM -SHRA BKN015
     FM220300 09004KT 3SM -SHRA OVC007=

USA.gov is the U.S. government's official web portal to all federal, state and local government web resources and services.